sensor_id;sensor_type;location;lat;lon;timestamp;P1;durP1;ratioP1;P2;durP2;ratioP2
11386;SDS011;5748;53.102;8.456;2022-07-22T00:00:37;0.93;;;0.90;;
11386;SDS011;5748;53.102;8.456;2022-07-22T00:03:06;0.90;;;0.80;;
11386;SDS011;5748;53.102;8.456;2022-07-22T00:05:33;1.17;;;1.07;;
11386;SDS011;5748;53.102;8.456;2022-07-22T00:08:01;0.80;;;0.80;;
11386;SDS011;5748;53.102;8.456;2022-07-22T00:10:28;1.17;;;0.80;;
11386;SDS011;5748;53.102;8.456;2022-07-22T00:12:56;0.63;;;0.63;;
11386;SDS011;5748;53.102;8.456;2022-07-22T00:18:15;0.90;;;0.87;;
11386;SDS011;5748;53.102;8.456;2022-07-22T00:20:43;1.10;;;0.93;;
11386;SDS011;5748;53.102;8.456;2022-07-22T00:23:10;1.03;;;0.70;;
11386;SDS011;5748;53.102;8.456;2022-07-22T00:25:37;0.97;;;0.90;;
11386;SDS011;5748;53.102;8.456;2022-07-22T00:28:04;0.70;;;0.70;;
11386;SDS011;5748;53.102;8.456;2022-07-22T00:30:31;1.50;;;0.70;;
11386;SDS011;5748;53.102;8.456;2022-07-22T00:32:58;0.70;;;0.70;;
11386;SDS011;5748;53.102;8.456;2022-07-22T00:35:28;0.80;;;0.80;;
11386;SDS011;5748;53.102;8.456;2022-07-22T00:37:55;1.47;;;0.80;;
11386;SDS011;5748;53.102;8.456;2022-07-22T00:40:22;0.70;;;0.70;;
11386;SDS011;5748;53.102;8.456;2022-07-22T00:42:49;0.60;;;0.60;;
11386;SDS011;5748;53.102;8.456;2022-07-22T00:45:18;1.17;;;0.77;;
11386;SDS011;5748;53.102;8.456;2022-07-22T00:47:45;0.60;;;0.60;;
11386;SDS011;5748;53.102;8.456;2022-07-22T00:50:12;1.27;;;0.90;;
11386;SDS011;5748;53.102;8.456;2022-07-22T00:52:41;0.70;;;0.70;;
11386;SDS011;5748;53.102;8.456;2022-07-22T00:55:09;1.00;;;0.90;;
11386;SDS011;5748;53.102;8.456;2022-07-22T00:57:42;0.70;;;0.70;;
11386;SDS011;5748;53.102;8.456;2022-07-22T01:00:11;0.83;;;0.70;;
11386;SDS011;5748;53.102;8.456;2022-07-22T01:02:42;0.60;;;0.60;;
11386;SDS011;5748;53.102;8.456;2022-07-22T01:05:09;0.63;;;0.63;;
11386;SDS011;5748;53.102;8.456;2022-07-22T01:07:36;0.70;;;0.70;;
11386;SDS011;5748;53.102;8.456;2022-07-22T01:10:06;0.60;;;0.60;;
11386;SDS011;5748;53.102;8.456;2022-07-22T01:12:34;0.50;;;0.50;;
11386;SDS011;5748;53.102;8.456;2022-07-22T01:15:07;0.60;;;0.60;;
11386;SDS011;5748;53.102;8.456;2022-07-22T01:17:35;0.50;;;0.50;;
11386;SDS011;5748;53.102;8.456;2022-07-22T01:20:04;0.70;;;0.70;;
11386;SDS011;5748;53.102;8.456;2022-07-22T01:22:32;0.70;;;0.70;;
11386;SDS011;5748;53.102;8.456;2022-07-22T01:25:00;0.70;;;0.70;;
11386;SDS011;5748;53.102;8.456;2022-07-22T01:27:33;0.60;;;0.60;;
11386;SDS011;5748;53.102;8.456;2022-07-22T01:30:00;0.60;;;0.60;;
11386;SDS011;5748;53.102;8.456;2022-07-22T01:32:28;0.70;;;0.70;;
11386;SDS011;5748;53.102;8.456;2022-07-22T01:34:55;0.60;;;0.60;;
11386;SDS011;5748;53.102;8.456;2022-07-22T01:37:26;0.60;;;0.60;;
11386;SDS011;5748;53.102;8.456;2022-07-22T01:39:54;0.50;;;0.50;;
11386;SDS011;5748;53.102;8.456;2022-07-22T01:42:21;0.60;;;0.60;;
11386;SDS011;5748;53.102;8.456;2022-07-22T01:44:49;1.03;;;0.70;;
11386;SDS011;5748;53.102;8.456;2022-07-22T01:47:15;0.80;;;0.60;;
11386;SDS011;5748;53.102;8.456;2022-07-22T01:49:43;0.50;;;0.50;;
11386;SDS011;5748;53.102;8.456;2022-07-22T01:52:10;0.77;;;0.60;;
11386;SDS011;5748;53.102;8.456;2022-07-22T01:54:39;0.70;;;0.70;;
11386;SDS011;5748;53.102;8.456;2022-07-22T01:57:06;0.60;;;0.60;;
11386;SDS011;5748;53.102;8.456;2022-07-22T01:59:47;0.70;;;0.70;;
11386;SDS011;5748;53.102;8.456;2022-07-22T02:02:14;1.27;;;0.70;;
11386;SDS011;5748;53.102;8.456;2022-07-22T02:07:50;1.00;;;0.60;;
11386;SDS011;5748;53.102;8.456;2022-07-22T02:13:04;0.60;;;0.60;;
11386;SDS011;5748;53.102;8.456;2022-07-22T02:15:32;1.33;;;0.63;;
11386;SDS011;5748;53.102;8.456;2022-07-22T02:17:59;0.60;;;0.60;;
11386;SDS011;5748;53.102;8.456;2022-07-22T02:23:18;0.90;;;0.60;;
11386;SDS011;5748;53.102;8.456;2022-07-22T02:28:29;1.33;;;0.60;;
11386;SDS011;5748;53.102;8.456;2022-07-22T02:33:42;0.80;;;0.50;;
11386;SDS011;5748;53.102;8.456;2022-07-22T02:36:09;0.67;;;0.60;;
11386;SDS011;5748;53.102;8.456;2022-07-22T02:38:50;0.60;;;0.60;;
11386;SDS011;5748;53.102;8.456;2022-07-22T02:41:17;1.03;;;0.70;;
11386;SDS011;5748;53.102;8.456;2022-07-22T02:43:46;0.63;;;0.60;;
11386;SDS011;5748;53.102;8.456;2022-07-22T02:46:13;1.70;;;0.90;;
11386;SDS011;5748;53.102;8.456;2022-07-22T02:48:40;0.60;;;0.60;;
11386;SDS011;5748;53.102;8.456;2022-07-22T02:51:07;0.80;;;0.80;;
11386;SDS011;5748;53.102;8.456;2022-07-22T02:53:47;0.60;;;0.60;;
11386;SDS011;5748;53.102;8.456;2022-07-22T02:56:14;2.50;;;0.80;;
11386;SDS011;5748;53.102;8.456;2022-07-22T02:58:41;1.27;;;0.80;;
11386;SDS011;5748;53.102;8.456;2022-07-22T03:01:23;0.80;;;0.60;;
11386;SDS011;5748;53.102;8.456;2022-07-22T03:03:50;1.07;;;0.63;;
11386;SDS011;5748;53.102;8.456;2022-07-22T03:06:23;1.70;;;0.90;;
11386;SDS011;5748;53.102;8.456;2022-07-22T03:08:50;0.70;;;0.70;;
11386;SDS011;5748;53.102;8.456;2022-07-22T03:11:17;0.90;;;0.67;;
11386;SDS011;5748;53.102;8.456;2022-07-22T03:13:44;0.60;;;0.60;;
11386;SDS011;5748;53.102;8.456;2022-07-22T03:16:11;0.70;;;0.70;;
11386;SDS011;5748;53.102;8.456;2022-07-22T03:18:40;0.50;;;0.50;;
11386;SDS011;5748;53.102;8.456;2022-07-22T03:21:07;0.80;;;0.70;;
11386;SDS011;5748;53.102;8.456;2022-07-22T03:27:01;0.70;;;0.70;;
11386;SDS011;5748;53.102;8.456;2022-07-22T03:29:28;0.87;;;0.73;;
11386;SDS011;5748;53.102;8.456;2022-07-22T03:32:20;0.93;;;0.70;;
11386;SDS011;5748;53.102;8.456;2022-07-22T03:34:48;1.23;;;0.70;;
11386;SDS011;5748;53.102;8.456;2022-07-22T03:37:15;1.27;;;0.70;;
11386;SDS011;5748;53.102;8.456;2022-07-22T03:39:42;0.60;;;0.60;;
11386;SDS011;5748;53.102;8.456;2022-07-22T03:42:20;0.60;;;0.60;;
11386;SDS011;5748;53.102;8.456;2022-07-22T03:44:47;0.97;;;0.60;;
11386;SDS011;5748;53.102;8.456;2022-07-22T03:47:17;0.70;;;0.70;;
11386;SDS011;5748;53.102;8.456;2022-07-22T03:49:57;1.00;;;0.77;;
11386;SDS011;5748;53.102;8.456;2022-07-22T03:52:24;0.73;;;0.73;;
11386;SDS011;5748;53.102;8.456;2022-07-22T03:54:51;0.87;;;0.73;;
11386;SDS011;5748;53.102;8.456;2022-07-22T03:57:28;0.90;;;0.70;;
11386;SDS011;5748;53.102;8.456;2022-07-22T03:59:55;1.13;;;0.77;;
11386;SDS011;5748;53.102;8.456;2022-07-22T04:02:24;0.87;;;0.80;;
11386;SDS011;5748;53.102;8.456;2022-07-22T04:04:52;1.17;;;0.80;;
11386;SDS011;5748;53.102;8.456;2022-07-22T04:07:27;0.93;;;0.80;;
11386;SDS011;5748;53.102;8.456;2022-07-22T04:09:54;0.90;;;0.70;;
11386;SDS011;5748;53.102;8.456;2022-07-22T04:12:29;1.00;;;0.80;;
11386;SDS011;5748;53.102;8.456;2022-07-22T04:14:58;0.87;;;0.80;;
11386;SDS011;5748;53.102;8.456;2022-07-22T04:17:33;0.83;;;0.83;;
11386;SDS011;5748;53.102;8.456;2022-07-22T04:22:48;0.73;;;0.60;;
11386;SDS011;5748;53.102;8.456;2022-07-22T04:25:15;1.03;;;0.73;;
11386;SDS011;5748;53.102;8.456;2022-07-22T04:30:18;0.73;;;0.73;;
11386;SDS011;5748;53.102;8.456;2022-07-22T04:32:45;1.27;;;0.70;;
11386;SDS011;5748;53.102;8.456;2022-07-22T04:35:28;0.60;;;0.60;;
11386;SDS011;5748;53.102;8.456;2022-07-22T04:37:56;1.40;;;0.73;;
11386;SDS011;5748;53.102;8.456;2022-07-22T04:40:23;1.37;;;0.77;;
11386;SDS011;5748;53.102;8.456;2022-07-22T04:42:50;1.20;;;0.90;;
11386;SDS011;5748;53.102;8.456;2022-07-22T04:45:17;0.73;;;0.73;;
11386;SDS011;5748;53.102;8.456;2022-07-22T04:47:44;1.67;;;1.00;;
11386;SDS011;5748;53.102;8.456;2022-07-22T04:50:11;0.93;;;0.83;;
11386;SDS011;5748;53.102;8.456;2022-07-22T04:52:39;1.17;;;0.80;;
11386;SDS011;5748;53.102;8.456;2022-07-22T04:55:08;0.70;;;0.70;;
11386;SDS011;5748;53.102;8.456;2022-07-22T04:57:41;0.73;;;0.73;;
11386;SDS011;5748;53.102;8.456;2022-07-22T05:00:08;1.23;;;0.90;;
11386;SDS011;5748;53.102;8.456;2022-07-22T05:02:36;0.80;;;0.80;;
11386;SDS011;5748;53.102;8.456;2022-07-22T05:05:14;0.77;;;0.77;;
11386;SDS011;5748;53.102;8.456;2022-07-22T05:07:42;0.73;;;0.70;;
11386;SDS011;5748;53.102;8.456;2022-07-22T05:10:10;0.90;;;0.80;;
11386;SDS011;5748;53.102;8.456;2022-07-22T05:12:37;1.57;;;1.00;;
11386;SDS011;5748;53.102;8.456;2022-07-22T05:15:04;0.80;;;0.80;;
11386;SDS011;5748;53.102;8.456;2022-07-22T05:17:32;1.40;;;1.00;;
11386;SDS011;5748;53.102;8.456;2022-07-22T05:20:01;2.03;;;1.00;;
11386;SDS011;5748;53.102;8.456;2022-07-22T05:22:29;1.37;;;0.80;;
11386;SDS011;5748;53.102;8.456;2022-07-22T05:24:56;1.10;;;1.00;;
11386;SDS011;5748;53.102;8.456;2022-07-22T05:30:27;1.10;;;1.00;;
11386;SDS011;5748;53.102;8.456;2022-07-22T05:32:54;1.50;;;1.00;;
11386;SDS011;5748;53.102;8.456;2022-07-22T05:35:21;1.63;;;1.10;;
11386;SDS011;5748;53.102;8.456;2022-07-22T05:37:48;1.10;;;1.00;;
11386;SDS011;5748;53.102;8.456;2022-07-22T05:40:34;1.33;;;1.00;;
11386;SDS011;5748;53.102;8.456;2022-07-22T05:43:03;1.93;;;1.10;;
11386;SDS011;5748;53.102;8.456;2022-07-22T05:48:29;1.00;;;0.87;;
11386;SDS011;5748;53.102;8.456;2022-07-22T05:50:56;1.53;;;1.10;;
11386;SDS011;5748;53.102;8.456;2022-07-22T05:53:23;1.73;;;0.90;;
11386;SDS011;5748;53.102;8.456;2022-07-22T05:55:50;1.30;;;1.00;;
11386;SDS011;5748;53.102;8.456;2022-07-22T05:58:19;1.43;;;0.97;;
11386;SDS011;5748;53.102;8.456;2022-07-22T06:00:46;1.63;;;1.20;;
11386;SDS011;5748;53.102;8.456;2022-07-22T06:03:20;1.00;;;0.90;;
11386;SDS011;5748;53.102;8.456;2022-07-22T06:05:47;1.37;;;0.80;;
11386;SDS011;5748;53.102;8.456;2022-07-22T06:10:44;2.10;;;1.00;;
11386;SDS011;5748;53.102;8.456;2022-07-22T06:13:11;3.33;;;0.90;;
11386;SDS011;5748;53.102;8.456;2022-07-22T06:15:39;1.03;;;0.93;;
11386;SDS011;5748;53.102;8.456;2022-07-22T06:18:06;0.87;;;0.73;;
11386;SDS011;5748;53.102;8.456;2022-07-22T06:23:11;1.07;;;0.93;;
11386;SDS011;5748;53.102;8.456;2022-07-22T06:25:40;1.60;;;1.13;;
11386;SDS011;5748;53.102;8.456;2022-07-22T06:28:07;1.37;;;1.03;;
11386;SDS011;5748;53.102;8.456;2022-07-22T06:30:35;1.07;;;0.80;;
11386;SDS011;5748;53.102;8.456;2022-07-22T06:33:10;1.30;;;0.90;;
11386;SDS011;5748;53.102;8.456;2022-07-22T06:35:37;0.80;;;0.80;;
11386;SDS011;5748;53.102;8.456;2022-07-22T06:38:06;1.47;;;1.10;;
11386;SDS011;5748;53.102;8.456;2022-07-22T06:40:34;1.10;;;1.00;;
11386;SDS011;5748;53.102;8.456;2022-07-22T06:43:01;1.27;;;1.10;;
11386;SDS011;5748;53.102;8.456;2022-07-22T06:45:29;1.73;;;0.97;;
11386;SDS011;5748;53.102;8.456;2022-07-22T06:48:15;1.40;;;1.20;;
11386;SDS011;5748;53.102;8.456;2022-07-22T06:50:43;1.10;;;1.00;;
11386;SDS011;5748;53.102;8.456;2022-07-22T06:53:10;1.10;;;1.00;;
11386;SDS011;5748;53.102;8.456;2022-07-22T06:55:37;1.10;;;1.00;;
11386;SDS011;5748;53.102;8.456;2022-07-22T06:58:04;0.90;;;0.90;;
11386;SDS011;5748;53.102;8.456;2022-07-22T07:00:31;2.17;;;1.00;;
11386;SDS011;5748;53.102;8.456;2022-07-22T07:02:58;1.33;;;0.80;;
11386;SDS011;5748;53.102;8.456;2022-07-22T07:05:27;1.00;;;0.90;;
11386;SDS011;5748;53.102;8.456;2022-07-22T07:07:55;2.00;;;0.93;;
11386;SDS011;5748;53.102;8.456;2022-07-22T07:10:22;1.40;;;1.20;;
11386;SDS011;5748;53.102;8.456;2022-07-22T07:15:46;1.80;;;1.00;;
11386;SDS011;5748;53.102;8.456;2022-07-22T07:18:29;0.90;;;0.90;;
11386;SDS011;5748;53.102;8.456;2022-07-22T07:20:57;1.10;;;0.90;;
11386;SDS011;5748;53.102;8.456;2022-07-22T07:23:24;1.10;;;1.00;;
11386;SDS011;5748;53.102;8.456;2022-07-22T07:25:51;1.20;;;1.07;;
11386;SDS011;5748;53.102;8.456;2022-07-22T07:31:04;0.90;;;0.90;;
11386;SDS011;5748;53.102;8.456;2022-07-22T07:33:31;1.27;;;0.87;;
11386;SDS011;5748;53.102;8.456;2022-07-22T07:36:01;1.57;;;1.00;;
11386;SDS011;5748;53.102;8.456;2022-07-22T07:38:28;1.07;;;1.00;;
11386;SDS011;5748;53.102;8.456;2022-07-22T07:40:55;1.03;;;0.93;;
11386;SDS011;5748;53.102;8.456;2022-07-22T07:43:23;1.20;;;1.10;;
11386;SDS011;5748;53.102;8.456;2022-07-22T07:45:52;1.57;;;1.10;;
11386;SDS011;5748;53.102;8.456;2022-07-22T07:48:19;1.00;;;0.90;;
11386;SDS011;5748;53.102;8.456;2022-07-22T07:50:47;1.17;;;1.00;;
11386;SDS011;5748;53.102;8.456;2022-07-22T07:53:15;2.13;;;0.90;;
11386;SDS011;5748;53.102;8.456;2022-07-22T07:55:43;0.90;;;0.90;;
11386;SDS011;5748;53.102;8.456;2022-07-22T07:58:24;0.70;;;0.70;;
11386;SDS011;5748;53.102;8.456;2022-07-22T08:00:53;1.20;;;0.80;;
11386;SDS011;5748;53.102;8.456;2022-07-22T08:03:20;0.83;;;0.80;;
11386;SDS011;5748;53.102;8.456;2022-07-22T08:05:47;0.93;;;0.90;;
11386;SDS011;5748;53.102;8.456;2022-07-22T08:08:15;1.10;;;0.90;;
11386;SDS011;5748;53.102;8.456;2022-07-22T08:10:42;1.00;;;0.90;;
11386;SDS011;5748;53.102;8.456;2022-07-22T08:13:10;1.00;;;0.90;;
11386;SDS011;5748;53.102;8.456;2022-07-22T08:15:37;1.00;;;0.90;;
11386;SDS011;5748;53.102;8.456;2022-07-22T08:18:04;1.17;;;0.90;;
11386;SDS011;5748;53.102;8.456;2022-07-22T08:20:40;1.03;;;1.00;;
11386;SDS011;5748;53.102;8.456;2022-07-22T08:23:07;1.07;;;0.97;;
11386;SDS011;5748;53.102;8.456;2022-07-22T08:25:36;1.00;;;1.00;;
11386;SDS011;5748;53.102;8.456;2022-07-22T08:28:03;0.87;;;0.80;;
11386;SDS011;5748;53.102;8.456;2022-07-22T08:30:30;1.10;;;1.00;;
11386;SDS011;5748;53.102;8.456;2022-07-22T08:32:58;1.53;;;1.00;;
11386;SDS011;5748;53.102;8.456;2022-07-22T08:35:25;1.33;;;1.00;;
11386;SDS011;5748;53.102;8.456;2022-07-22T08:40:32;1.00;;;0.90;;
11386;SDS011;5748;53.102;8.456;2022-07-22T08:43:02;0.83;;;0.83;;
11386;SDS011;5748;53.102;8.456;2022-07-22T08:45:30;0.93;;;0.83;;
11386;SDS011;5748;53.102;8.456;2022-07-22T08:47:57;1.30;;;1.00;;
11386;SDS011;5748;53.102;8.456;2022-07-22T08:50:33;1.00;;;0.90;;
11386;SDS011;5748;53.102;8.456;2022-07-22T08:53:00;0.90;;;0.80;;
11386;SDS011;5748;53.102;8.456;2022-07-22T08:55:28;1.10;;;1.00;;
11386;SDS011;5748;53.102;8.456;2022-07-22T08:57:58;1.13;;;1.00;;
11386;SDS011;5748;53.102;8.456;2022-07-22T09:00:26;1.00;;;0.80;;
11386;SDS011;5748;53.102;8.456;2022-07-22T09:02:54;2.03;;;1.00;;
11386;SDS011;5748;53.102;8.456;2022-07-22T09:05:21;1.10;;;1.00;;
11386;SDS011;5748;53.102;8.456;2022-07-22T09:07:48;0.80;;;0.80;;
11386;SDS011;5748;53.102;8.456;2022-07-22T09:10:23;1.00;;;0.93;;
11386;SDS011;5748;53.102;8.456;2022-07-22T09:12:52;0.70;;;0.70;;
11386;SDS011;5748;53.102;8.456;2022-07-22T09:15:33;1.00;;;0.88;;
11386;SDS011;5748;53.102;8.456;2022-07-22T09:18:04;0.70;;;0.70;;
11386;SDS011;5748;53.102;8.456;2022-07-22T09:20:32;2.25;;;1.00;;
11386;SDS011;5748;53.102;8.456;2022-07-22T09:23:01;3.07;;;1.00;;
11386;SDS011;5748;53.102;8.456;2022-07-22T09:25:38;0.80;;;0.80;;
11386;SDS011;5748;53.102;8.456;2022-07-22T09:28:10;1.25;;;0.85;;
11386;SDS011;5748;53.102;8.456;2022-07-22T09:30:48;1.05;;;0.82;;
11386;SDS011;5748;53.102;8.456;2022-07-22T09:33:17;0.85;;;0.82;;
11386;SDS011;5748;53.102;8.456;2022-07-22T09:35:45;1.50;;;0.90;;
11386;SDS011;5748;53.102;8.456;2022-07-22T09:38:26;0.80;;;0.80;;
11386;SDS011;5748;53.102;8.456;2022-07-22T09:40:54;1.27;;;1.00;;
11386;SDS011;5748;53.102;8.456;2022-07-22T09:43:22;1.37;;;0.90;;
11386;SDS011;5748;53.102;8.456;2022-07-22T09:45:56;1.97;;;1.10;;
11386;SDS011;5748;53.102;8.456;2022-07-22T09:48:24;1.27;;;0.90;;
11386;SDS011;5748;53.102;8.456;2022-07-22T09:50:52;1.93;;;1.07;;
11386;SDS011;5748;53.102;8.456;2022-07-22T09:53:22;1.07;;;0.93;;
11386;SDS011;5748;53.102;8.456;2022-07-22T09:58:27;0.80;;;0.80;;
11386;SDS011;5748;53.102;8.456;2022-07-22T10:00:57;1.50;;;0.90;;
11386;SDS011;5748;53.102;8.456;2022-07-22T10:03:26;1.13;;;1.07;;
11386;SDS011;5748;53.102;8.456;2022-07-22T10:05:55;1.07;;;0.97;;
11386;SDS011;5748;53.102;8.456;2022-07-22T10:08:23;0.83;;;0.83;;
11386;SDS011;5748;53.102;8.456;2022-07-22T10:10:53;0.80;;;0.80;;
11386;SDS011;5748;53.102;8.456;2022-07-22T10:13:25;1.40;;;0.83;;
11386;SDS011;5748;53.102;8.456;2022-07-22T10:15:53;0.90;;;0.70;;
11386;SDS011;5748;53.102;8.456;2022-07-22T10:18:23;1.03;;;0.80;;
11386;SDS011;5748;53.102;8.456;2022-07-22T10:21:00;1.85;;;1.05;;
11386;SDS011;5748;53.102;8.456;2022-07-22T10:23:28;1.00;;;0.90;;
11386;SDS011;5748;53.102;8.456;2022-07-22T10:25:56;0.93;;;0.90;;
11386;SDS011;5748;53.102;8.456;2022-07-22T10:28:25;1.17;;;1.00;;
11386;SDS011;5748;53.102;8.456;2022-07-22T10:31:07;1.00;;;0.90;;
11386;SDS011;5748;53.102;8.456;2022-07-22T10:33:45;1.17;;;0.85;;
11386;SDS011;5748;53.102;8.456;2022-07-22T10:36:29;0.90;;;0.90;;
11386;SDS011;5748;53.102;8.456;2022-07-22T10:39:02;1.02;;;0.90;;
11386;SDS011;5748;53.102;8.456;2022-07-22T10:41:35;0.90;;;0.90;;
11386;SDS011;5748;53.102;8.456;2022-07-22T10:44:04;1.50;;;0.73;;
11386;SDS011;5748;53.102;8.456;2022-07-22T10:46:48;0.80;;;0.80;;
11386;SDS011;5748;53.102;8.456;2022-07-22T10:49:19;0.95;;;0.85;;
11386;SDS011;5748;53.102;8.456;2022-07-22T10:57:47;0.80;;;0.80;;
11386;SDS011;5748;53.102;8.456;2022-07-22T11:00:15;1.13;;;0.85;;
11386;SDS011;5748;53.102;8.456;2022-07-22T11:05:24;1.17;;;1.08;;
11386;SDS011;5748;53.102;8.456;2022-07-22T11:07:51;0.90;;;0.90;;
11386;SDS011;5748;53.102;8.456;2022-07-22T11:10:20;1.10;;;1.00;;
11386;SDS011;5748;53.102;8.456;2022-07-22T11:13:04;0.90;;;0.90;;
11386;SDS011;5748;53.102;8.456;2022-07-22T11:15:32;1.05;;;0.82;;
11386;SDS011;5748;53.102;8.456;2022-07-22T11:18:00;1.05;;;0.80;;
11386;SDS011;5748;53.102;8.456;2022-07-22T11:20:34;0.90;;;0.90;;
11386;SDS011;5748;53.102;8.456;2022-07-22T11:23:02;0.80;;;0.80;;
11386;SDS011;5748;53.102;8.456;2022-07-22T11:25:30;0.80;;;0.80;;
11386;SDS011;5748;53.102;8.456;2022-07-22T11:27:57;0.88;;;0.70;;
11386;SDS011;5748;53.102;8.456;2022-07-22T11:30:34;1.88;;;1.23;;
11386;SDS011;5748;53.102;8.456;2022-07-22T11:36:14;0.88;;;0.80;;
11386;SDS011;5748;53.102;8.456;2022-07-22T11:38:42;0.70;;;0.70;;
11386;SDS011;5748;53.102;8.456;2022-07-22T11:41:28;1.10;;;1.00;;
11386;SDS011;5748;53.102;8.456;2022-07-22T11:43:56;1.58;;;0.90;;
11386;SDS011;5748;53.102;8.456;2022-07-22T11:46:25;0.70;;;0.70;;
11386;SDS011;5748;53.102;8.456;2022-07-22T11:48:55;1.25;;;1.00;;
11386;SDS011;5748;53.102;8.456;2022-07-22T11:51:27;0.70;;;0.70;;
11386;SDS011;5748;53.102;8.456;2022-07-22T11:53:56;0.85;;;0.70;;
11386;SDS011;5748;53.102;8.456;2022-07-22T11:56:24;1.10;;;0.77;;
11386;SDS011;5748;53.102;8.456;2022-07-22T11:58:51;1.38;;;0.95;;
11386;SDS011;5748;53.102;8.456;2022-07-22T12:01:20;0.80;;;0.80;;
11386;SDS011;5748;53.102;8.456;2022-07-22T12:03:50;0.73;;;0.73;;
11386;SDS011;5748;53.102;8.456;2022-07-22T12:06:21;1.02;;;0.70;;
11386;SDS011;5748;53.102;8.456;2022-07-22T12:08:49;1.15;;;0.70;;
11386;SDS011;5748;53.102;8.456;2022-07-22T12:11:19;0.55;;;0.55;;
11386;SDS011;5748;53.102;8.456;2022-07-22T12:13:51;0.80;;;0.60;;
11386;SDS011;5748;53.102;8.456;2022-07-22T12:16:19;0.80;;;0.80;;
11386;SDS011;5748;53.102;8.456;2022-07-22T12:18:53;1.63;;;0.90;;
11386;SDS011;5748;53.102;8.456;2022-07-22T12:21:24;0.70;;;0.70;;
11386;SDS011;5748;53.102;8.456;2022-07-22T12:23:55;0.82;;;0.80;;
11386;SDS011;5748;53.102;8.456;2022-07-22T12:26:36;0.70;;;0.70;;
11386;SDS011;5748;53.102;8.456;2022-07-22T12:29:13;1.60;;;0.70;;
11386;SDS011;5748;53.102;8.456;2022-07-22T12:31:48;0.63;;;0.63;;
11386;SDS011;5748;53.102;8.456;2022-07-22T12:34:17;0.63;;;0.63;;
11386;SDS011;5748;53.102;8.456;2022-07-22T12:36:57;0.70;;;0.60;;
11386;SDS011;5748;53.102;8.456;2022-07-22T12:39:25;0.77;;;0.70;;
11386;SDS011;5748;53.102;8.456;2022-07-22T12:41:54;0.63;;;0.63;;
11386;SDS011;5748;53.102;8.456;2022-07-22T12:44:22;0.60;;;0.60;;
11386;SDS011;5748;53.102;8.456;2022-07-22T12:46:51;0.70;;;0.60;;
11386;SDS011;5748;53.102;8.456;2022-07-22T12:49:20;0.70;;;0.70;;
11386;SDS011;5748;53.102;8.456;2022-07-22T12:52:09;0.80;;;0.80;;
11386;SDS011;5748;53.102;8.456;2022-07-22T12:54:39;0.73;;;0.70;;
11386;SDS011;5748;53.102;8.456;2022-07-22T12:57:07;0.75;;;0.75;;
11386;SDS011;5748;53.102;8.456;2022-07-22T12:59:36;0.60;;;0.60;;
11386;SDS011;5748;53.102;8.456;2022-07-22T13:02:03;0.70;;;0.70;;
11386;SDS011;5748;53.102;8.456;2022-07-22T13:04:30;0.93;;;0.80;;
11386;SDS011;5748;53.102;8.456;2022-07-22T13:06:57;0.60;;;0.60;;
11386;SDS011;5748;53.102;8.456;2022-07-22T13:09:25;1.08;;;0.70;;
11386;SDS011;5748;53.102;8.456;2022-07-22T13:11:52;0.65;;;0.65;;
11386;SDS011;5748;53.102;8.456;2022-07-22T13:14:19;0.60;;;0.60;;
11386;SDS011;5748;53.102;8.456;2022-07-22T13:16:46;0.82;;;0.80;;
11386;SDS011;5748;53.102;8.456;2022-07-22T13:19:14;0.75;;;0.70;;
11386;SDS011;5748;53.102;8.456;2022-07-22T13:21:40;1.85;;;0.80;;
11386;SDS011;5748;53.102;8.456;2022-07-22T13:24:09;0.93;;;0.70;;
11386;SDS011;5748;53.102;8.456;2022-07-22T13:26:39;0.70;;;0.70;;
11386;SDS011;5748;53.102;8.456;2022-07-22T13:29:06;1.17;;;0.93;;
11386;SDS011;5748;53.102;8.456;2022-07-22T13:31:34;0.70;;;0.70;;
11386;SDS011;5748;53.102;8.456;2022-07-22T13:34:01;0.60;;;0.60;;
11386;SDS011;5748;53.102;8.456;2022-07-22T13:36:29;0.60;;;0.60;;
11386;SDS011;5748;53.102;8.456;2022-07-22T13:38:57;0.90;;;0.57;;
11386;SDS011;5748;53.102;8.456;2022-07-22T13:41:25;0.70;;;0.70;;
11386;SDS011;5748;53.102;8.456;2022-07-22T13:43:53;0.68;;;0.60;;
11386;SDS011;5748;53.102;8.456;2022-07-22T13:46:20;0.80;;;0.80;;
11386;SDS011;5748;53.102;8.456;2022-07-22T13:48:47;0.90;;;0.70;;
11386;SDS011;5748;53.102;8.456;2022-07-22T13:51:14;0.70;;;0.70;;
11386;SDS011;5748;53.102;8.456;2022-07-22T13:53:42;0.82;;;0.60;;
11386;SDS011;5748;53.102;8.456;2022-07-22T13:56:09;0.63;;;0.60;;
11386;SDS011;5748;53.102;8.456;2022-07-22T13:58:38;0.77;;;0.77;;
11386;SDS011;5748;53.102;8.456;2022-07-22T14:01:07;0.95;;;0.70;;
11386;SDS011;5748;53.102;8.456;2022-07-22T14:03:35;0.93;;;0.75;;
11386;SDS011;5748;53.102;8.456;2022-07-22T14:06:03;0.70;;;0.70;;
11386;SDS011;5748;53.102;8.456;2022-07-22T14:08:33;0.77;;;0.60;;
11386;SDS011;5748;53.102;8.456;2022-07-22T14:11:01;0.70;;;0.70;;
11386;SDS011;5748;53.102;8.456;2022-07-22T14:13:28;1.38;;;0.60;;
11386;SDS011;5748;53.102;8.456;2022-07-22T14:15:55;0.50;;;0.50;;
11386;SDS011;5748;53.102;8.456;2022-07-22T14:18:44;1.60;;;0.60;;
11386;SDS011;5748;53.102;8.456;2022-07-22T14:21:11;0.65;;;0.65;;
11386;SDS011;5748;53.102;8.456;2022-07-22T14:23:38;0.73;;;0.55;;
11386;SDS011;5748;53.102;8.456;2022-07-22T14:26:05;0.82;;;0.60;;
11386;SDS011;5748;53.102;8.456;2022-07-22T14:28:32;0.75;;;0.75;;
11386;SDS011;5748;53.102;8.456;2022-07-22T14:30:59;0.50;;;0.40;;
11386;SDS011;5748;53.102;8.456;2022-07-22T14:33:26;0.85;;;0.85;;
11386;SDS011;5748;53.102;8.456;2022-07-22T14:35:55;0.70;;;0.60;;
11386;SDS011;5748;53.102;8.456;2022-07-22T14:38:22;0.85;;;0.70;;
11386;SDS011;5748;53.102;8.456;2022-07-22T14:40:49;0.63;;;0.60;;
11386;SDS011;5748;53.102;8.456;2022-07-22T14:43:16;0.68;;;0.68;;
11386;SDS011;5748;53.102;8.456;2022-07-22T14:45:43;0.47;;;0.47;;
11386;SDS011;5748;53.102;8.456;2022-07-22T14:48:10;0.52;;;0.50;;
11386;SDS011;5748;53.102;8.456;2022-07-22T14:50:37;0.77;;;0.70;;
11386;SDS011;5748;53.102;8.456;2022-07-22T14:53:05;0.88;;;0.68;;
11386;SDS011;5748;53.102;8.456;2022-07-22T14:55:33;0.93;;;0.70;;
11386;SDS011;5748;53.102;8.456;2022-07-22T14:58:00;0.60;;;0.60;;
11386;SDS011;5748;53.102;8.456;2022-07-22T15:00:27;0.60;;;0.60;;
11386;SDS011;5748;53.102;8.456;2022-07-22T15:02:54;0.77;;;0.70;;
11386;SDS011;5748;53.102;8.456;2022-07-22T15:05:21;0.70;;;0.70;;
11386;SDS011;5748;53.102;8.456;2022-07-22T15:07:49;0.63;;;0.63;;
11386;SDS011;5748;53.102;8.456;2022-07-22T15:10:17;0.60;;;0.57;;
11386;SDS011;5748;53.102;8.456;2022-07-22T15:12:44;0.70;;;0.70;;
11386;SDS011;5748;53.102;8.456;2022-07-22T15:15:11;0.73;;;0.70;;
11386;SDS011;5748;53.102;8.456;2022-07-22T15:17:38;1.02;;;0.90;;
11386;SDS011;5748;53.102;8.456;2022-07-22T15:20:06;0.52;;;0.52;;
11386;SDS011;5748;53.102;8.456;2022-07-22T15:22:34;0.80;;;0.80;;
11386;SDS011;5748;53.102;8.456;2022-07-22T15:25:01;0.70;;;0.70;;
11386;SDS011;5748;53.102;8.456;2022-07-22T15:27:30;0.68;;;0.68;;
11386;SDS011;5748;53.102;8.456;2022-07-22T15:29:57;0.93;;;0.60;;
11386;SDS011;5748;53.102;8.456;2022-07-22T15:32:24;1.05;;;0.60;;
11386;SDS011;5748;53.102;8.456;2022-07-22T15:34:51;1.52;;;0.65;;
11386;SDS011;5748;53.102;8.456;2022-07-22T15:37:17;0.70;;;0.70;;
11386;SDS011;5748;53.102;8.456;2022-07-22T15:39:46;0.70;;;0.70;;
11386;SDS011;5748;53.102;8.456;2022-07-22T15:42:13;0.70;;;0.70;;
11386;SDS011;5748;53.102;8.456;2022-07-22T15:44:41;0.70;;;0.70;;
11386;SDS011;5748;53.102;8.456;2022-07-22T15:47:08;0.70;;;0.70;;
11386;SDS011;5748;53.102;8.456;2022-07-22T15:49:35;1.13;;;0.80;;
11386;SDS011;5748;53.102;8.456;2022-07-22T15:52:02;0.80;;;0.80;;
11386;SDS011;5748;53.102;8.456;2022-07-22T15:54:30;0.70;;;0.70;;
11386;SDS011;5748;53.102;8.456;2022-07-22T15:56:57;1.55;;;0.80;;
11386;SDS011;5748;53.102;8.456;2022-07-22T15:59:38;0.70;;;0.70;;
11386;SDS011;5748;53.102;8.456;2022-07-22T16:02:07;0.90;;;0.80;;
11386;SDS011;5748;53.102;8.456;2022-07-22T16:04:35;0.50;;;0.50;;
11386;SDS011;5748;53.102;8.456;2022-07-22T16:07:02;0.68;;;0.68;;
11386;SDS011;5748;53.102;8.456;2022-07-22T16:09:29;1.20;;;0.60;;
11386;SDS011;5748;53.102;8.456;2022-07-22T16:11:56;0.70;;;0.70;;